Flight Track Log - Related Links

Times and Time Zones

All times are in EST time to prevent confusion due to time zone crossing. See the FIN666 flight status page for this flight to view local times or setup timezone preferences in your user account.

Time Position Orientation Groundspeed Altitude Reporting Facility
EST Latitude Longitude Course Direction KTS MPH feet Rate Location/Type
Mon 07:27:00 AM 55.8520 13.1400 49° Northeast  Level Estimated
Mon 07:28:00 AM 55.9296 13.3027 50° Northeast  Level Estimated
Mon 07:29:00 AM 56.0070 13.4660 50° Northeast  Level Estimated
Mon 07:30:00 AM 56.0842 13.6299 50° Northeast  Level Estimated
Mon 07:31:00 AM 56.1612 13.7945 50° Northeast  Level Estimated
Mon 07:32:00 AM 56.2403 13.9649 50° Northeast  Level Estimated
Mon 07:33:00 AM 56.3192 14.1360 50° Northeast  Level Estimated
Mon 07:34:00 AM 56.3978 14.3078 50° Northeast  Level Estimated
Mon 07:35:00 AM 56.4762 14.4803 51° Northeast  Level Estimated
Mon 07:36:00 AM 56.5543 14.6535 51° Northeast  Level Estimated
Mon 07:37:00 AM 56.6323 14.8274 51° Northeast  Level Estimated
Mon 07:38:00 AM 56.7099 15.0020 51° Northeast  Level Estimated
Mon 07:39:00 AM 56.7873 15.1774 51° Northeast  Level Estimated
Mon 07:40:00 AM 56.8645 15.3534 51° Northeast  Level Estimated
Mon 07:41:00 AM 56.9414 15.5302 51° Northeast  Level Estimated
Mon 07:42:00 AM 57.0181 15.7078 52° Northeast  Level Estimated
Mon 07:43:00 AM 57.0946 15.8861 52° Northeast  Level Estimated
Mon 07:44:00 AM 57.1707 16.0651 52° Northeast  Level Estimated
Mon 07:45:00 AM 57.2466 16.2448 52° Northeast  Level Estimated
Mon 07:46:00 AM 57.3223 16.4253 52° Northeast  Level Estimated
Mon 07:47:00 AM 57.3977 16.6065 52° Northeast  Level Estimated
Mon 07:48:00 AM 57.4728 16.7885 52° Northeast  Level Estimated
Mon 07:49:00 AM 57.5477 16.9712 53° Northeast  Level Estimated
Mon 07:50:00 AM 57.6223 17.1547 53° Northeast  Level Estimated
Mon 07:51:00 AM 57.6967 17.3389 53° Northeast  Level Estimated
Mon 07:52:00 AM 57.7707 17.5239 53° Northeast  Level Estimated
Mon 07:53:00 AM 57.8445 17.7096 53° Northeast  Level Estimated
Mon 07:54:00 AM 57.9180 17.8961 53° Northeast  Level Estimated
Mon 07:55:00 AM 57.9913 18.0834 54° Northeast  Level Estimated
Mon 07:56:00 AM 58.0643 18.2714 54° Northeast  Level Estimated
Mon 07:57:00 AM 58.1370 18.4602 54° Northeast  Level Estimated
Mon 07:58:00 AM 58.2094 18.6498 54° Northeast  Level Estimated
Mon 07:59:00 AM 58.2816 18.8401 54° Northeast  Level Estimated
Mon 08:00:00 AM 58.3534 19.0312 54° Northeast  Level Estimated
Mon 08:01:00 AM 58.4250 19.2232 54° Northeast  Level Estimated
Mon 08:02:00 AM 58.4963 19.4158 55° Northeast  Level Estimated
Mon 08:03:00 AM 58.5672 19.6093 55° Northeast  Level Estimated
Mon 08:04:00 AM 58.6380 19.8035 55° Northeast  Level Estimated
Mon 08:05:00 AM 58.7084 19.9986 55° Northeast  Level Estimated
Mon 08:06:00 AM 58.7785 20.1944 55° Northeast  Level Estimated
Mon 08:07:00 AM 58.8483 20.3910 55° Northeast  Level Estimated
Mon 08:08:00 AM 58.9178 20.5884 56° Northeast  Level Estimated
Mon 08:09:00 AM 58.9870 20.7866 56° Northeast  Level Estimated
Mon 08:10:00 AM 59.0559 20.9856 56° Northeast  Level Estimated
Mon 08:11:00 AM 59.1245 21.1854 56° Northeast  Level Estimated
Mon 08:12:00 AM 59.1928 21.3860 56° Northeast  Level Estimated
Mon 08:13:00 AM 59.2608 21.5874 56° Northeast  Level Estimated
Mon 08:14:00 AM 59.3284 21.7896 57° Northeast  Level Estimated
Mon 08:15:00 AM 59.3958 21.9925 57° Northeast  Level Estimated
Mon 08:16:00 AM 59.4628 22.1964 57° Northeast  Level Estimated
Mon 08:17:00 AM 59.5296 22.4010 57° Northeast  Level Estimated
Mon 08:18:00 AM 59.5895 22.5864 57° Northeast  Level Estimated
Mon 08:19:00 AM 59.6492 22.7725 58° Northeast  Level Estimated
Mon 08:20:00 AM 59.7086 22.9592 58° Northeast  Level Estimated
Mon 08:21:00 AM 59.7678 23.1466 58° Northeast  Level Estimated
Mon 08:22:00 AM 59.8267 23.3347 58° Northeast  Level Estimated
Mon 08:23:00 AM 59.8853 23.5234 58° Northeast  Level Estimated
Mon 08:24:00 AM 59.9437 23.7128 58° Northeast  Level Estimated
Mon 08:25:00 AM 60.0018 23.9029 59° Northeast  Level Estimated
Mon 08:26:00 AM 60.0596 24.0936 59° Northeast  Level Estimated
Mon 08:27:00 AM 60.1171 24.2850 59° Northeast  Level Estimated
Mon 08:28:00 AM 60.1744 24.4771 59° Northeast  Level Estimated
Mon 08:29:00 AM 60.2314 24.6698 59° Northeast  Level Estimated
Mon 08:30:00 AM 60.2881 24.8632 59° Northeast  Level Estimated
Mon 08:31:00 AM 60.3172 24.9633 60° Northeast  Level Estimated
Mon 08:32:00 AM 60.3172 24.9633 37° Northeast  Level Estimated
Mon 08:33:00 AM 60.3172 24.9633 37° Northeast  Level Estimated
Mon 08:34:00 AM 60.3172 24.9633 37° Northeast  Level Estimated
Mon 08:35:00 AM 60.3172 24.9633 37° Northeast  Level Estimated
Mon 08:36:00 AM 60.3172 24.9633 37° Northeast  Level Estimated
Mon 08:37:00 AM 60.3172 24.9633 37° Northeast  Level Estimated
Mon 08:38:00 AM 60.3172 24.9633 37° Northeast  Level Estimated
Mon 08:39:00 AM 60.3172 24.9633 37° Northeast  Level Estimated
Mon 08:40:00 AM 60.3172 24.9633 37° Northeast  Level Estimated
Mon 08:41:00 AM 60.3172 24.9633 37° Northeast  Level Estimated
Mon 08:42:00 AM 60.3172 24.9633 37° Northeast  Level Estimated
Mon 08:43:00 AM 60.3172 24.9633 37° Northeast  Level Estimated
Mon 08:44:00 AM 60.3172 24.9633 37° Northeast  Level Estimated
Mon 08:45:00 AM 60.3172 24.9633 37° Northeast  Level Estimated
Mon 08:46:00 AM 60.3172 24.9633 37° Northeast  Level Estimated
Mon 08:47:00 AM 60.3172 24.9633 37° Northeast  Level Estimated
Mon 08:48:00 AM 60.3172 24.9633 37° Northeast  Level Estimated

Login

Don't have an account? Register now (free) for customized features, flight alerts, and more!